Time;durP1;ratioP1;P1;durP2;ratioP2;P2;SDS_P1;SDS_P2;PMS_P1;PMS_P2;Temp;Humidity;BMP_temperature;BMP_pressure;BME280_temperature;BME280_humidity;BME280_pressure;Samples;Min_cycle;Max_cycle;Signal;HPM_P1;HPM_P2
2021/11/29 00:00:15;;;;;;;;;;;19.20;31.50;;;;;;471840;251;944;-79
2021/11/29 00:02:16;;;;;;;;;;;19.20;31.60;;;;;;478937;247;1195;-78
2021/11/29 00:04:17;;;;;;;;;;;19.20;31.60;;;;;;471877;251;1185;-78
2021/11/29 00:06:19;;;;;;;;;;;19.30;31.50;;;;;;478966;247;966;-78
2021/11/29 00:08:20;;;;;;;;;;;19.30;31.40;;;;;;471827;251;2183;-78
2021/11/29 00:10:22;;;;;;;;;;;19.30;31.40;;;;;;479039;247;918;-78
2021/11/29 00:12:23;;;;;;;;;;;19.40;31.30;;;;;;471857;250;1043;-78
2021/11/29 00:14:24;;;;;;;;;;;19.50;31.20;;;;;;478987;247;1044;-78
2021/11/29 00:16:26;;;;;;;;;;;19.50;31.10;;;;;;471767;250;1160;-78
2021/11/29 00:18:27;;;;;;;;;;;19.40;31.30;;;;;;478977;247;932;-78
2021/11/29 00:20:28;;;;;;;;;;;19.40;31.30;;;;;;471858;250;1184;-78
2021/11/29 00:22:30;;;;;;;;;;;19.30;31.40;;;;;;478998;247;1098;-78
2021/11/29 00:24:31;;;;;;;;;;;19.10;31.60;;;;;;471837;251;1226;-78
2021/11/29 00:26:32;;;;;;;;;;;19.00;31.80;;;;;;478852;247;1049;-78
2021/11/29 00:28:34;;;;;;;;;;;19.00;31.80;;;;;;471718;251;2210;-78
2021/11/29 00:30:35;;;;;;;;;;;18.90;31.90;;;;;;478867;247;1147;-78
2021/11/29 00:32:37;;;;;;;;;;;18.90;31.90;;;;;;471614;251;1218;-78
2021/11/29 00:34:38;;;;;;;;;;;19.00;31.90;;;;;;478918;247;1303;-78
2021/11/29 00:36:39;;;;;;;;;;;19.00;31.90;;;;;;471734;251;1096;-78
2021/11/29 00:38:41;;;;;;;;;;;18.90;31.90;;;;;;478928;247;1097;-78
2021/11/29 00:40:42;;;;;;;;;;;19.10;31.70;;;;;;471857;251;1199;-78
2021/11/29 00:42:44;;;;;;;;;;;19.10;31.70;;;;;;478899;247;1096;-77
2021/11/29 00:44:45;;;;;;;;;;;19.20;31.70;;;;;;471758;251;981;-77
2021/11/29 00:46:46;;;;;;;;;;;19.10;31.70;;;;;;478791;247;1110;-77
2021/11/29 00:48:48;;;;;;;;;;;19.10;31.70;;;;;;471780;251;2183;-77
2021/11/29 00:50:49;;;;;;;;;;;19.10;31.70;;;;;;478906;247;1223;-77
2021/11/29 00:52:50;;;;;;;;;;;19.10;31.70;;;;;;471781;251;1125;-78
2021/11/29 00:54:52;;;;;;;;;;;19.10;31.70;;;;;;478994;247;954;-78
2021/11/29 00:56:53;;;;;;;;;;;19.10;31.70;;;;;;471852;250;1083;-77
2021/11/29 00:58:54;;;;;;;;;;;19.10;31.70;;;;;;478915;247;1068;-78
2021/11/29 01:00:56;;;;;;;;;;;19.10;31.70;;;;;;471739;251;1241;-77
2021/11/29 01:02:57;;;;;;;;;;;19.00;31.80;;;;;;478972;247;1328;-77
2021/11/29 01:04:58;;;;;;;;;;;19.10;31.80;;;;;;471821;250;1148;-77
2021/11/29 01:07:00;;;;;;;;;;;19.10;31.80;;;;;;478926;247;1222;-78
2021/11/29 01:09:01;;;;;;;;;;;19.00;31.70;;;;;;471800;251;2190;-77
2021/11/29 01:11:02;;;;;;;;;;;19.00;31.70;;;;;;478919;247;1193;-77
2021/11/29 01:13:04;;;;;;;;;;;19.00;31.80;;;;;;471818;251;1168;-77
2021/11/29 01:15:05;;;;;;;;;;;19.10;31.80;;;;;;479022;247;1022;-77
2021/11/29 01:17:07;;;;;;;;;;;19.10;31.80;;;;;;471765;251;1231;-77
2021/11/29 01:19:08;;;;;;;;;;;19.00;31.60;;;;;;478897;247;1465;-77
2021/11/29 01:21:09;;;;;;;;;;;19.00;31.80;;;;;;471827;251;1185;-78
2021/11/29 01:23:10;;;;;;;;;;;18.90;31.80;;;;;;478960;247;1081;-77
2021/11/29 01:25:12;;;;;;;;;;;19.00;31.80;;;;;;471855;251;991;-77
2021/11/29 01:27:13;;;;;;;;;;;19.10;31.70;;;;;;478982;247;1123;-77
2021/11/29 01:29:14;;;;;;;;;;;19.10;31.70;;;;;;471801;251;2158;-77
2021/11/29 01:31:16;;;;;;;;;;;19.00;31.70;;;;;;478989;247;1123;-77
2021/11/29 01:33:17;;;;;;;;;;;19.10;31.70;;;;;;471816;251;1289;-77
2021/11/29 01:35:18;;;;;;;;;;;19.00;31.70;;;;;;478952;247;1145;-77
2021/11/29 01:37:20;;;;;;;;;;;19.10;31.70;;;;;;471814;251;1403;-78
2021/11/29 01:39:21;;;;;;;;;;;19.00;31.70;;;;;;478888;247;1245;-77
2021/11/29 01:41:22;;;;;;;;;;;19.10;31.70;;;;;;471817;251;1239;-77
2021/11/29 01:43:24;;;;;;;;;;;19.10;31.70;;;;;;478954;247;1092;-77
2021/11/29 01:45:25;;;;;;;;;;;19.00;31.60;;;;;;471753;251;1019;-77
2021/11/29 01:47:27;;;;;;;;;;;19.10;31.60;;;;;;478920;247;1217;-77
2021/11/29 01:49:28;;;;;;;;;;;19.10;31.40;;;;;;471785;251;2131;-77
2021/11/29 01:51:29;;;;;;;;;;;19.00;31.60;;;;;;478986;247;1190;-77
2021/11/29 01:53:31;;;;;;;;;;;19.00;31.60;;;;;;471789;251;930;-77
2021/11/29 01:55:32;;;;;;;;;;;19.10;31.60;;;;;;478931;247;1088;-77
2021/11/29 01:57:33;;;;;;;;;;;19.10;31.50;;;;;;471764;251;1180;-77
2021/11/29 01:59:34;;;;;;;;;;;19.00;31.40;;;;;;479020;247;927;-77
2021/11/29 02:01:36;;;;;;;;;;;19.00;31.60;;;;;;471787;251;1187;-78
2021/11/29 02:03:37;;;;;;;;;;;19.00;31.40;;;;;;478919;247;1202;-78
2021/11/29 02:05:38;;;;;;;;;;;19.00;31.40;;;;;;471757;251;1307;-77
2021/11/29 02:07:40;;;;;;;;;;;19.00;31.40;;;;;;478940;247;1095;-78
2021/11/29 02:09:41;;;;;;;;;;;19.00;31.40;;;;;;471803;251;2186;-78
2021/11/29 02:11:43;;;;;;;;;;;19.00;31.30;;;;;;478985;247;1259;-77
2021/11/29 02:13:44;;;;;;;;;;;18.80;31.50;;;;;;471844;251;983;-78
2021/11/29 02:15:50;;;;;;;;;;;18.70;31.70;;;;;;478930;247;1315;-78
2021/11/29 02:17:47;;;;;;;;;;;18.70;31.90;;;;;;471555;252;1339;-78
2021/11/29 02:19:49;;;;;;;;;;;18.60;31.80;;;;;;478961;247;1008;-78
2021/11/29 02:21:50;;;;;;;;;;;18.60;31.90;;;;;;471624;251;1223;-78
2021/11/29 02:23:51;;;;;;;;;;;18.60;31.90;;;;;;478974;247;1053;-78
2021/11/29 02:25:53;;;;;;;;;;;18.70;31.80;;;;;;471806;250;1242;-78
2021/11/29 02:27:54;;;;;;;;;;;18.70;31.80;;;;;;478949;247;1108;-78
2021/11/29 02:29:55;;;;;;;;;;;18.60;31.80;;;;;;471765;251;2194;-78
2021/11/29 02:31:57;;;;;;;;;;;18.70;31.80;;;;;;478857;247;1279;-78
2021/11/29 02:33:58;;;;;;;;;;;18.60;31.80;;;;;;471814;251;1146;-78
2021/11/29 02:35:59;;;;;;;;;;;18.70;31.80;;;;;;478928;247;1173;-78
2021/11/29 02:38:01;;;;;;;;;;;18.70;31.80;;;;;;471752;251;1012;-78
2021/11/29 02:40:02;;;;;;;;;;;18.60;31.70;;;;;;478958;247;1072;-78
2021/11/29 02:42:03;;;;;;;;;;;18.70;31.80;;;;;;471762;251;1113;-78
2021/11/29 02:44:05;;;;;;;;;;;18.60;31.80;;;;;;478982;247;1162;-78
2021/11/29 02:46:06;;;;;;;;;;;18.50;31.80;;;;;;471810;251;1322;-78
2021/11/29 02:48:07;;;;;;;;;;;18.50;31.80;;;;;;478923;247;1065;-78
2021/11/29 02:50:09;;;;;;;;;;;18.50;31.80;;;;;;471753;251;2190;-78
2021/11/29 02:52:10;;;;;;;;;;;18.60;31.90;;;;;;478804;247;1178;-78
2021/11/29 02:54:11;;;;;;;;;;;18.60;31.80;;;;;;471895;251;1181;-78
2021/11/29 02:56:13;;;;;;;;;;;18.60;31.80;;;;;;478884;247;1218;-78
2021/11/29 02:58:14;;;;;;;;;;;18.60;31.80;;;;;;471790;251;1114;-77
2021/11/29 03:00:15;;;;;;;;;;;18.60;31.70;;;;;;478952;247;944;-78
2021/11/29 03:02:17;;;;;;;;;;;18.60;31.70;;;;;;471818;251;1137;-78
2021/11/29 03:04:18;;;;;;;;;;;18.60;31.70;;;;;;478971;247;949;-78
2021/11/29 03:06:19;;;;;;;;;;;18.60;31.70;;;;;;471742;251;1104;-78
2021/11/29 03:08:21;;;;;;;;;;;18.50;31.70;;;;;;478981;247;1084;-78
2021/11/29 03:10:22;;;;;;;;;;;18.50;31.70;;;;;;471804;251;2202;-78
2021/11/29 03:12:24;;;;;;;;;;;18.50;31.70;;;;;;478934;247;1154;-78
2021/11/29 03:14:25;;;;;;;;;;;18.60;31.70;;;;;;471847;251;973;-78
2021/11/29 03:16:26;;;;;;;;;;;18.60;31.60;;;;;;478984;247;1129;-78
2021/11/29 03:18:28;;;;;;;;;;;18.50;31.60;;;;;;471860;251;934;-78
2021/11/29 03:20:29;;;;;;;;;;;18.50;31.60;;;;;;478991;247;1001;-77
2021/11/29 03:22:30;;;;;;;;;;;18.60;31.60;;;;;;471857;251;1105;-77
2021/11/29 03:24:32;;;;;;;;;;;18.50;31.70;;;;;;478919;247;957;-78
2021/11/29 03:26:33;;;;;;;;;;;18.50;31.60;;;;;;471720;251;1200;-78
2021/11/29 03:28:34;;;;;;;;;;;18.50;31.60;;;;;;478923;247;1114;-78
2021/11/29 03:30:36;;;;;;;;;;;18.50;31.60;;;;;;471692;251;2198;-78
2021/11/29 03:32:38;;;;;;;;;;;18.50;31.70;;;;;;478927;247;1203;-78
2021/11/29 03:34:38;;;;;;;;;;;18.50;31.60;;;;;;471824;251;1351;-78
2021/11/29 03:36:40;;;;;;;;;;;18.60;31.60;;;;;;478887;245;1209;-78
2021/11/29 03:38:41;;;;;;;;;;;18.60;31.50;;;;;;471877;251;1080;-78
2021/11/29 03:40:42;;;;;;;;;;;18.60;31.50;;;;;;478873;247;1195;-78
2021/11/29 03:42:44;;;;;;;;;;;18.60;31.50;;;;;;471855;251;1164;-78
2021/11/29 03:44:45;;;;;;;;;;;18.60;31.60;;;;;;478965;247;1147;-78
2021/11/29 03:46:46;;;;;;;;;;;18.50;31.60;;;;;;471793;250;1254;-78
2021/11/29 03:48:48;;;;;;;;;;;18.50;31.50;;;;;;478944;247;2203;-78
2021/11/29 03:50:49;;;;;;;;;;;18.50;31.50;;;;;;471797;251;1333;-78
2021/11/29 03:52:50;;;;;;;;;;;18.50;31.60;;;;;;478917;247;1175;-78
2021/11/29 03:54:52;;;;;;;;;;;18.50;31.60;;;;;;471866;250;1008;-78
2021/11/29 03:56:53;;;;;;;;;;;18.50;31.50;;;;;;478947;247;1180;-77
2021/11/29 03:58:54;;;;;;;;;;;18.50;31.50;;;;;;471830;251;1146;-78
2021/11/29 04:00:56;;;;;;;;;;;18.50;31.60;;;;;;478929;247;1223;-78
2021/11/29 04:02:57;;;;;;;;;;;18.50;31.60;;;;;;471867;251;1168;-78
2021/11/29 04:04:58;;;;;;;;;;;18.50;31.50;;;;;;478986;247;973;-78
2021/11/29 04:07:00;;;;;;;;;;;18.50;31.50;;;;;;471753;251;1238;-78
2021/11/29 04:09:02;;;;;;;;;;;18.50;31.50;;;;;;478989;247;2139;-77
2021/11/29 04:11:02;;;;;;;;;;;18.50;31.50;;;;;;471732;251;1423;-77
2021/11/29 04:13:04;;;;;;;;;;;18.50;31.60;;;;;;478925;247;1278;-78
2021/11/29 04:15:05;;;;;;;;;;;18.50;31.60;;;;;;471837;250;940;-78
2021/11/29 04:17:07;;;;;;;;;;;18.50;31.60;;;;;;478848;247;1210;-78
2021/11/29 04:19:08;;;;;;;;;;;18.40;31.60;;;;;;471724;251;1088;-78
2021/11/29 04:21:09;;;;;;;;;;;18.40;31.60;;;;;;478945;247;1198;-77
2021/11/29 04:23:11;;;;;;;;;;;18.40;31.70;;;;;;471746;251;1178;-77
2021/11/29 04:25:12;;;;;;;;;;;18.40;31.70;;;;;;479019;247;1106;-77
2021/11/29 04:27:13;;;;;;;;;;;18.40;31.70;;;;;;471761;251;1352;-77
2021/11/29 04:29:19;;;;;;;;;;;18.40;31.70;;;;;;478957;247;2171;-77
2021/11/29 04:31:19;;;;;;;;;;;18.40;31.70;;;;;;471722;248;1451;-78
2021/11/29 04:33:20;;;;;;;;;;;18.40;31.60;;;;;;478947;247;1111;-78
2021/11/29 04:35:21;;;;;;;;;;;18.40;31.60;;;;;;471810;251;997;-78
2021/11/29 04:37:23;;;;;;;;;;;18.40;31.60;;;;;;478896;244;1176;-78
2021/11/29 04:39:24;;;;;;;;;;;18.40;31.60;;;;;;471789;251;1001;-78
2021/11/29 04:41:25;;;;;;;;;;;18.30;31.60;;;;;;478837;247;1098;-77
2021/11/29 04:43:27;;;;;;;;;;;18.40;31.70;;;;;;471802;248;1158;-78
2021/11/29 04:45:29;;;;;;;;;;;18.40;31.60;;;;;;478917;247;1200;-78
2021/11/29 04:47:29;;;;;;;;;;;18.40;31.60;;;;;;471617;249;1358;-78
2021/11/29 04:49:31;;;;;;;;;;;18.40;31.60;;;;;;478891;247;2178;-77
2021/11/29 04:51:32;;;;;;;;;;;18.50;31.60;;;;;;471707;251;1205;-78
2021/11/29 04:53:35;;;;;;;;;;;18.40;31.50;;;;;;478928;247;1179;-78
2021/11/29 04:55:35;;;;;;;;;;;18.40;31.50;;;;;;471771;252;1500;-78
2021/11/29 04:57:36;;;;;;;;;;;18.40;31.50;;;;;;478985;247;1059;-78
2021/11/29 04:59:37;;;;;;;;;;;18.40;31.50;;;;;;471776;250;1067;-78
2021/11/29 05:01:39;;;;;;;;;;;18.40;31.60;;;;;;478964;247;1204;-78
2021/11/29 05:03:40;;;;;;;;;;;18.40;31.60;;;;;;471774;251;1098;-78
2021/11/29 05:05:42;;;;;;;;;;;18.40;31.60;;;;;;478903;247;1203;-78
2021/11/29 05:07:43;;;;;;;;;;;18.40;31.60;;;;;;471862;251;1162;-78
2021/11/29 05:09:44;;;;;;;;;;;18.40;31.60;;;;;;479108;247;2202;-78
2021/11/29 05:11:46;;;;;;;;;;;18.40;31.60;;;;;;471818;251;1071;-78
2021/11/29 05:13:47;;;;;;;;;;;18.40;31.60;;;;;;479106;247;963;-78
2021/11/29 05:15:48;;;;;;;;;;;18.40;31.60;;;;;;471863;251;967;-78
2021/11/29 05:17:50;;;;;;;;;;;18.40;31.60;;;;;;479060;247;1095;-78
2021/11/29 05:19:51;;;;;;;;;;;18.40;31.50;;;;;;471859;251;972;-78
2021/11/29 05:21:52;;;;;;;;;;;18.40;31.50;;;;;;478973;247;1162;-78
2021/11/29 05:23:54;;;;;;;;;;;18.40;31.50;;;;;;471916;251;1170;-78
2021/11/29 05:25:55;;;;;;;;;;;18.40;31.60;;;;;;479054;247;980;-78
2021/11/29 05:27:56;;;;;;;;;;;18.40;31.60;;;;;;471823;251;1157;-78
2021/11/29 05:29:58;;;;;;;;;;;18.40;31.60;;;;;;479003;247;2191;-78
2021/11/29 05:31:59;;;;;;;;;;;18.40;31.70;;;;;;471783;251;1212;-78
2021/11/29 05:34:02;;;;;;;;;;;18.40;31.60;;;;;;478979;247;1192;-78
2021/11/29 05:36:03;;;;;;;;;;;18.30;31.70;;;;;;471875;251;1354;-78
2021/11/29 05:38:04;;;;;;;;;;;18.30;31.60;;;;;;478980;247;1338;-78
2021/11/29 05:40:05;;;;;;;;;;;18.40;31.70;;;;;;471871;251;1100;-78
2021/11/29 05:42:07;;;;;;;;;;;18.40;31.60;;;;;;478960;247;1083;-78
2021/11/29 05:44:08;;;;;;;;;;;18.40;31.60;;;;;;471865;251;1087;-78
2021/11/29 05:46:09;;;;;;;;;;;18.40;31.60;;;;;;478432;247;1248;-78
2021/11/29 05:48:11;;;;;;;;;;;18.40;31.60;;;;;;471882;251;1156;-78
2021/11/29 05:50:12;;;;;;;;;;;18.40;31.60;;;;;;479030;247;2194;-78
2021/11/29 05:52:13;;;;;;;;;;;18.40;31.50;;;;;;471823;251;1128;-78
2021/11/29 05:54:15;;;;;;;;;;;18.40;31.60;;;;;;478931;247;1156;-78
2021/11/29 05:56:16;;;;;;;;;;;18.40;31.60;;;;;;471769;251;1390;-78
2021/11/29 05:58:17;;;;;;;;;;;18.40;31.60;;;;;;478935;247;950;-78
2021/11/29 06:00:20;;;;;;;;;;;18.40;31.60;;;;;;471760;251;953;-78
2021/11/29 06:02:20;;;;;;;;;;;18.40;31.60;;;;;;478813;247;1419;-78
2021/11/29 06:04:21;;;;;;;;;;;18.40;31.60;;;;;;471841;251;943;-78
2021/11/29 06:06:23;;;;;;;;;;;18.40;31.60;;;;;;478948;247;1217;-78
2021/11/29 06:08:24;;;;;;;;;;;18.40;31.60;;;;;;471754;251;1007;-78
2021/11/29 06:10:25;;;;;;;;;;;18.40;31.60;;;;;;478939;247;2202;-78
2021/11/29 06:12:27;;;;;;;;;;;18.30;31.60;;;;;;471712;251;1118;-78
2021/11/29 06:14:28;;;;;;;;;;;18.40;31.60;;;;;;478895;247;938;-78
2021/11/29 06:16:29;;;;;;;;;;;18.40;31.60;;;;;;471709;251;1230;-78
2021/11/29 06:18:31;;;;;;;;;;;18.40;31.50;;;;;;478852;247;1061;-78
2021/11/29 06:20:32;;;;;;;;;;;18.40;31.50;;;;;;471608;251;1259;-78
2021/11/29 06:22:33;;;;;;;;;;;18.40;31.60;;;;;;478693;247;1240;-78
2021/11/29 06:24:35;;;;;;;;;;;18.40;31.50;;;;;;471568;251;1201;-78
2021/11/29 06:26:36;;;;;;;;;;;18.30;31.50;;;;;;478696;247;1189;-78
2021/11/29 06:28:37;;;;;;;;;;;18.30;31.50;;;;;;471632;251;1224;-78
2021/11/29 06:30:39;;;;;;;;;;;18.40;31.50;;;;;;478809;247;2131;-78
2021/11/29 06:32:40;;;;;;;;;;;18.40;31.50;;;;;;471608;251;1098;-78
2021/11/29 06:34:41;;;;;;;;;;;18.40;31.50;;;;;;478773;247;1035;-78
2021/11/29 06:36:43;;;;;;;;;;;18.30;31.50;;;;;;471639;251;1194;-78
2021/11/29 06:38:44;;;;;;;;;;;18.30;31.60;;;;;;478756;247;942;-78
2021/11/29 06:40:49;;;;;;;;;;;18.40;31.60;;;;;;471868;250;1228;-78
2021/11/29 06:42:49;;;;;;;;;;;18.30;31.60;;;;;;478718;248;1357;-78
2021/11/29 06:44:50;;;;;;;;;;;18.40;31.60;;;;;;471625;251;941;-78
2021/11/29 06:46:51;;;;;;;;;;;18.40;31.50;;;;;;478772;247;1091;-77
2021/11/29 06:48:53;;;;;;;;;;;18.30;31.50;;;;;;471585;251;962;-78
2021/11/29 06:50:54;;;;;;;;;;;18.30;31.50;;;;;;478629;247;2187;-78
2021/11/29 06:52:55;;;;;;;;;;;18.40;31.50;;;;;;471501;251;1043;-78
2021/11/29 06:54:57;;;;;;;;;;;18.40;31.60;;;;;;478746;247;1167;-78
2021/11/29 06:56:58;;;;;;;;;;;18.30;31.60;;;;;;471619;251;1209;-78
2021/11/29 06:58:59;;;;;;;;;;;18.40;31.60;;;;;;478806;247;964;-78
2021/11/29 07:01:01;;;;;;;;;;;18.40;31.60;;;;;;471524;251;1080;-78
2021/11/29 07:03:02;;;;;;;;;;;18.40;31.50;;;;;;478680;247;977;-78
2021/11/29 07:05:04;;;;;;;;;;;18.40;31.50;;;;;;471440;251;963;-78
2021/11/29 07:07:05;;;;;;;;;;;18.40;31.50;;;;;;478475;247;1237;-78
2021/11/29 07:09:06;;;;;;;;;;;18.30;31.50;;;;;;471493;251;1407;-78
2021/11/29 07:11:08;;;;;;;;;;;18.30;31.60;;;;;;478675;245;2198;-78
2021/11/29 07:13:09;;;;;;;;;;;18.30;31.60;;;;;;471519;251;939;-78
2021/11/29 07:15:10;;;;;;;;;;;18.30;31.50;;;;;;478611;247;947;-78
2021/11/29 07:17:11;;;;;;;;;;;18.30;31.60;;;;;;471482;251;1211;-78
2021/11/29 07:19:13;;;;;;;;;;;18.30;31.60;;;;;;478612;247;1279;-78
2021/11/29 07:21:14;;;;;;;;;;;18.30;31.60;;;;;;471396;251;1225;-78
2021/11/29 07:23:16;;;;;;;;;;;18.30;31.60;;;;;;478618;247;979;-78
2021/11/29 07:25:17;;;;;;;;;;;18.30;31.60;;;;;;471512;251;1483;-78
2021/11/29 07:27:18;;;;;;;;;;;18.30;31.60;;;;;;478569;247;1220;-78
2021/11/29 07:29:20;;;;;;;;;;;18.40;31.60;;;;;;471517;251;1085;-78
2021/11/29 07:31:21;;;;;;;;;;;18.40;31.50;;;;;;478524;247;2187;-78
2021/11/29 07:33:22;;;;;;;;;;;18.30;31.50;;;;;;471430;251;1133;-78
2021/11/29 07:35:24;;;;;;;;;;;18.40;31.60;;;;;;478393;247;1019;-78
2021/11/29 07:37:25;;;;;;;;;;;18.30;31.50;;;;;;471393;251;1219;-78
2021/11/29 07:39:26;;;;;;;;;;;18.30;31.60;;;;;;478418;247;991;-77
2021/11/29 07:41:28;;;;;;;;;;;18.40;31.60;;;;;;471398;249;1283;-78
2021/11/29 07:43:29;;;;;;;;;;;18.30;31.60;;;;;;478372;247;1111;-77
2021/11/29 07:45:30;;;;;;;;;;;18.40;31.60;;;;;;471272;250;1130;-77
2021/11/29 07:47:32;;;;;;;;;;;18.40;31.60;;;;;;478397;247;1095;-78
2021/11/29 07:49:33;;;;;;;;;;;18.40;31.60;;;;;;471277;250;968;-78
2021/11/29 07:51:34;;;;;;;;;;;18.40;31.50;;;;;;478421;247;2178;-77
2021/11/29 07:53:36;;;;;;;;;;;18.40;31.60;;;;;;470790;251;1231;-78
2021/11/29 07:55:37;;;;;;;;;;;18.30;31.60;;;;;;478307;247;1272;-77
2021/11/29 07:57:38;;;;;;;;;;;18.30;31.60;;;;;;471160;250;1064;-78
2021/11/29 07:59:40;;;;;;;;;;;18.30;31.60;;;;;;478431;247;1025;-77
2021/11/29 08:01:41;;;;;;;;;;;18.40;31.70;;;;;;471327;250;1107;-77
2021/11/29 08:03:42;;;;;;;;;;;18.30;31.70;;;;;;478392;247;967;-77
2021/11/29 08:05:44;;;;;;;;;;;18.40;31.70;;;;;;471034;251;1259;-78
2021/11/29 08:07:45;;;;;;;;;;;18.40;31.70;;;;;;478266;247;1438;-78
2021/11/29 08:09:47;;;;;;;;;;;18.40;31.70;;;;;;471224;251;978;-78
2021/11/29 08:11:48;;;;;;;;;;;18.40;31.70;;;;;;478205;248;2143;-77
2021/11/29 08:13:49;;;;;;;;;;;18.40;31.70;;;;;;471123;251;1214;-77
2021/11/29 08:15:51;;;;;;;;;;;18.40;31.70;;;;;;478129;247;1172;-77
2021/11/29 08:17:52;;;;;;;;;;;18.40;31.70;;;;;;471042;251;1147;-77
2021/11/29 08:19:53;;;;;;;;;;;18.30;31.70;;;;;;478367;247;1098;-77
2021/11/29 08:21:55;;;;;;;;;;;18.30;31.80;;;;;;471075;251;1204;-77
2021/11/29 08:23:56;;;;;;;;;;;18.30;31.80;;;;;;478323;247;995;-77
2021/11/29 08:25:57;;;;;;;;;;;18.30;31.80;;;;;;471242;251;1235;-77
2021/11/29 08:27:59;;;;;;;;;;;18.30;31.90;;;;;;478502;247;1062;-78
2021/11/29 08:30:00;;;;;;;;;;;18.40;31.80;;;;;;471110;251;1040;-78
2021/11/29 08:32:01;;;;;;;;;;;18.30;31.90;;;;;;478174;247;2210;-78
2021/11/29 08:34:03;;;;;;;;;;;18.30;31.90;;;;;;471077;251;1000;-78
2021/11/29 08:36:04;;;;;;;;;;;18.30;31.90;;;;;;478141;247;1221;-78
2021/11/29 08:38:05;;;;;;;;;;;18.30;31.90;;;;;;470715;251;1575;-77
2021/11/29 08:40:07;;;;;;;;;;;18.40;31.90;;;;;;478217;247;1232;-77
2021/11/29 08:42:08;;;;;;;;;;;18.40;31.90;;;;;;471223;250;1262;-77
2021/11/29 08:44:11;;;;;;;;;;;18.40;31.90;;;;;;478302;247;997;-77
2021/11/29 08:46:11;;;;;;;;;;;18.40;31.90;;;;;;471028;252;1408;-77
2021/11/29 08:48:12;;;;;;;;;;;18.40;31.90;;;;;;478197;247;1211;-77
2021/11/29 08:50:13;;;;;;;;;;;18.30;31.90;;;;;;471110;250;979;-77
2021/11/29 08:52:15;;;;;;;;;;;18.40;31.90;;;;;;478168;247;2143;-77
2021/11/29 08:54:16;;;;;;;;;;;18.40;31.90;;;;;;471043;251;971;-77
2021/11/29 08:56:17;;;;;;;;;;;18.30;31.90;;;;;;478051;247;1217;-77
2021/11/29 08:58:19;;;;;;;;;;;18.30;32.00;;;;;;471145;251;1070;-77
2021/11/29 09:00:20;;;;;;;;;;;18.30;31.90;;;;;;478393;247;987;-77
2021/11/29 09:02:21;;;;;;;;;;;18.40;32.00;;;;;;471243;251;1237;-77
2021/11/29 09:04:23;;;;;;;;;;;18.30;31.90;;;;;;478370;247;925;-78
2021/11/29 09:06:24;;;;;;;;;;;18.30;31.90;;;;;;471085;251;1144;-78
2021/11/29 09:08:25;;;;;;;;;;;18.30;31.90;;;;;;478299;247;1056;-78
2021/11/29 09:10:27;;;;;;;;;;;18.30;31.90;;;;;;471182;251;974;-78
2021/11/29 09:12:28;;;;;;;;;;;18.30;31.90;;;;;;478141;245;2135;-77
2021/11/29 09:14:29;;;;;;;;;;;18.40;31.90;;;;;;478336;247;1309;-78
2021/11/29 09:16:31;;;;;;;;;;;18.40;31.90;;;;;;471194;251;1213;-77
2021/11/29 09:18:32;;;;;;;;;;;18.40;32.00;;;;;;478308;247;1411;-77
2021/11/29 09:20:33;;;;;;;;;;;18.40;31.90;;;;;;471138;251;1057;-77
2021/11/29 09:22:35;;;;;;;;;;;18.30;31.90;;;;;;478473;247;1096;-78
2021/11/29 09:24:36;;;;;;;;;;;18.30;31.90;;;;;;471159;251;1143;-78
2021/11/29 09:26:37;;;;;;;;;;;18.30;32.00;;;;;;478198;247;1442;-78
2021/11/29 09:28:39;;;;;;;;;;;18.30;32.00;;;;;;471145;251;1084;-78
2021/11/29 09:30:40;;;;;;;;;;;18.30;32.00;;;;;;478322;247;1014;-78
2021/11/29 09:32:41;;;;;;;;;;;18.30;32.00;;;;;;471524;250;2205;-78
2021/11/29 09:34:43;;;;;;;;;;;18.30;32.00;;;;;;478408;247;937;-77
2021/11/29 09:36:44;;;;;;;;;;;18.30;32.00;;;;;;471158;251;1231;-78
2021/11/29 09:38:45;;;;;;;;;;;18.30;32.00;;;;;;478377;247;1120;-78
2021/11/29 09:40:47;;;;;;;;;;;18.30;32.00;;;;;;471245;251;1102;-78
2021/11/29 09:42:50;;;;;;;;;;;18.30;32.00;;;;;;478345;247;1155;-77
2021/11/29 09:44:53;;;;;;;;;;;18.30;32.00;;;;;;471184;250;994;-78
2021/11/29 09:46:53;;;;;;;;;;;18.30;32.00;;;;;;478466;248;1459;-78
2021/11/29 09:48:54;;;;;;;;;;;18.30;32.00;;;;;;471161;251;1141;-78
2021/11/29 09:50:56;;;;;;;;;;;18.30;32.00;;;;;;478309;247;1156;-78
2021/11/29 09:52:57;;;;;;;;;;;18.30;32.00;;;;;;471159;251;1094;-78
2021/11/29 09:54:58;;;;;;;;;;;18.30;31.90;;;;;;478461;247;1131;-78
2021/11/29 09:56:59;;;;;;;;;;;18.30;31.90;;;;;;471235;251;1228;-78
2021/11/29 09:59:01;;;;;;;;;;;18.30;32.00;;;;;;478357;247;949;-78
2021/11/29 10:01:02;;;;;;;;;;;18.30;32.00;;;;;;471037;251;1173;-78
2021/11/29 10:03:03;;;;;;;;;;;18.30;32.00;;;;;;478277;247;1148;-78
2021/11/29 10:05:05;;;;;;;;;;;18.30;32.00;;;;;;471327;251;1136;-78
2021/11/29 10:07:06;;;;;;;;;;;18.30;31.90;;;;;;478351;247;1167;-78
2021/11/29 10:09:08;;;;;;;;;;;18.30;32.00;;;;;;471234;251;1020;-78
2021/11/29 10:11:11;;;;;;;;;;;18.30;32.00;;;;;;478160;247;2123;-78
2021/11/29 10:13:11;;;;;;;;;;;18.30;32.00;;;;;;471128;251;1314;-78
2021/11/29 10:15:12;;;;;;;;;;;18.30;31.90;;;;;;478168;247;1113;-78
2021/11/29 10:17:13;;;;;;;;;;;18.30;32.00;;;;;;471228;251;1232;-78
2021/11/29 10:19:15;;;;;;;;;;;18.30;31.90;;;;;;478282;247;1008;-78
2021/11/29 10:21:19;;;;;;;;;;;18.30;32.00;;;;;;470989;251;1279;-78
2021/11/29 10:23:17;;;;;;;;;;;18.30;32.00;;;;;;477914;248;1389;-77
2021/11/29 10:25:19;;;;;;;;;;;18.30;32.00;;;;;;471170;251;1086;-78
2021/11/29 10:27:20;;;;;;;;;;;18.30;31.90;;;;;;478316;247;1131;-77
2021/11/29 10:29:22;;;;;;;;;;;18.30;32.00;;;;;;470878;251;1081;-78
2021/11/29 10:31:23;;;;;;;;;;;18.30;32.00;;;;;;478106;247;2124;-78
2021/11/29 10:33:24;;;;;;;;;;;18.30;32.00;;;;;;470968;251;1244;-78
2021/11/29 10:35:26;;;;;;;;;;;18.30;32.00;;;;;;477922;247;969;-78
2021/11/29 10:37:27;;;;;;;;;;;18.30;32.00;;;;;;470817;251;1210;-78
2021/11/29 10:39:28;;;;;;;;;;;18.30;31.90;;;;;;477948;248;1485;-78
2021/11/29 10:41:30;;;;;;;;;;;18.30;31.90;;;;;;470898;251;1244;-78
2021/11/29 10:43:31;;;;;;;;;;;18.30;31.90;;;;;;478197;247;1073;-78
2021/11/29 10:45:36;;;;;;;;;;;18.30;31.90;;;;;;471096;251;1119;-78
2021/11/29 10:47:35;;;;;;;;;;;18.40;32.00;;;;;;478033;248;1310;-78
2021/11/29 10:49:37;;;;;;;;;;;18.40;31.90;;;;;;471018;252;1318;-78
2021/11/29 10:51:36;;;;;;;;;;;18.40;31.90;;;;;;478037;248;2135;-78
2021/11/29 10:53:38;;;;;;;;;;;18.50;31.80;;;;;;471009;251;1101;-78
2021/11/29 10:55:39;;;;;;;;;;;18.50;31.80;;;;;;477957;247;1099;-78
2021/11/29 10:57:40;;;;;;;;;;;18.60;31.70;;;;;;470912;251;1164;-78
2021/11/29 10:59:42;;;;;;;;;;;18.60;31.60;;;;;;478178;247;1081;-78
2021/11/29 11:01:43;;;;;;;;;;;18.70;31.50;;;;;;470869;251;1368;-78
2021/11/29 11:03:44;;;;;;;;;;;18.60;31.50;;;;;;478208;247;1056;-78
2021/11/29 11:05:46;;;;;;;;;;;18.60;31.60;;;;;;471096;251;1145;-78
2021/11/29 11:07:50;;;;;;;;;;;18.60;31.60;;;;;;478260;247;1232;-78
2021/11/29 11:09:48;;;;;;;;;;;18.50;31.70;;;;;;470872;252;1435;-77
2021/11/29 11:11:50;;;;;;;;;;;18.50;31.70;;;;;;478211;247;2206;-77
2021/11/29 11:13:51;;;;;;;;;;;18.50;31.70;;;;;;471002;251;1171;-78
2021/11/29 11:15:52;;;;;;;;;;;18.60;31.70;;;;;;478292;247;1217;-78
2021/11/29 11:17:54;;;;;;;;;;;18.60;31.70;;;;;;471177;251;1222;-78
2021/11/29 11:19:55;;;;;;;;;;;18.60;31.60;;;;;;478227;247;1107;-77
2021/11/29 11:21:56;;;;;;;;;;;18.60;31.50;;;;;;470984;251;1231;-78
2021/11/29 11:23:58;;;;;;;;;;;18.70;31.50;;;;;;478119;247;1114;-78
2021/11/29 11:25:59;;;;;;;;;;;18.70;31.40;;;;;;470946;250;1223;-78
2021/11/29 11:28:00;;;;;;;;;;;18.70;31.40;;;;;;478160;247;1199;-77
2021/11/29 11:30:02;;;;;;;;;;;18.70;31.50;;;;;;471197;251;1015;-78
2021/11/29 11:32:03;;;;;;;;;;;18.70;31.50;;;;;;478349;247;2183;-78
2021/11/29 11:34:04;;;;;;;;;;;18.70;31.50;;;;;;471228;251;980;-78
2021/11/29 11:36:06;;;;;;;;;;;18.60;31.50;;;;;;478344;247;1236;-77
2021/11/29 11:38:07;;;;;;;;;;;18.60;31.50;;;;;;471327;250;1165;-78
2021/11/29 11:40:08;;;;;;;;;;;18.70;31.50;;;;;;478382;247;1057;-78
2021/11/29 11:42:10;;;;;;;;;;;18.60;31.50;;;;;;471269;251;1093;-78
2021/11/29 11:44:11;;;;;;;;;;;18.70;31.40;;;;;;478343;247;1201;-78
2021/11/29 11:46:12;;;;;;;;;;;18.80;31.30;;;;;;471127;251;1226;-78
2021/11/29 11:48:14;;;;;;;;;;;18.80;31.30;;;;;;478226;247;1212;-77
2021/11/29 11:50:15;;;;;;;;;;;18.80;31.20;;;;;;471128;251;962;-77
2021/11/29 11:52:16;;;;;;;;;;;18.80;31.30;;;;;;478331;247;2186;-77
2021/11/29 11:54:18;;;;;;;;;;;18.80;31.20;;;;;;471008;251;1075;-77
2021/11/29 11:56:19;;;;;;;;;;;18.80;31.30;;;;;;478121;247;1127;-78